Terminal Aerodrome Forecast
Issued by NWS

Home | Current Version | Previous Version | Text Only | Print | Product List | Glossary On
Versions: 1 2 3 4 5 6 7 8 9 10 11 12 13
881
FTPA31 PHFO 091740
TAFHJR
TAF
PHJR 091740Z 0918/1018 03004KT P6SM -RA SCT030 SCT050 OVC070
     FM092100 20009KT P6SM VCSH SCT025 BKN050
     FM100400 VRB04KT P6SM VCSH SCT025 BKN045=

USA.gov is the U.S. government's official web portal to all federal, state and local government web resources and services.